Terminal Aerodrome Forecast
Issued by NWS Pittsburgh, PA

Current Version | Previous Version | Graphics & Text | Print | Product List | Glossary On
Versions: 1 2 3 4 5 6 7 8 9 10 11 12 13 14 15 16 17 18 19 20 21 22 23 24 25 26 27 28 29 30 31 32 33 34 35 36 37
000
FTUS41 KPBZ 201300 AAA
TAFPIT
TAF AMD
KPIT 201337Z 2014/2118 19006KT 4SM -SHRA SCT005 BKN035 OVC080
     FM201400 22010KT P6SM BKN040
     FM201800 22010KT P6SM VCTS BKN040CB
     FM210200 23004KT P6SM SCT040
     FM210700 VRB03KT 5SM BR SCT040
     FM211400 24006KT P6SM BKN040=

USA.gov is the U.S. government's official web portal to all federal, state and local government web resources and services.